sensor_id;sensor_type;location;lat;lon;timestamp;P1;durP1;ratioP1;P2;durP2;ratioP2
12005;SDS011;6062;47.294;12.182;2023-04-16T00:02:19;0.60;;;0.60;;
12005;SDS011;6062;47.294;12.182;2023-04-16T00:04:45;0.50;;;0.50;;
12005;SDS011;6062;47.294;12.182;2023-04-16T00:07:11;0.50;;;0.50;;
12005;SDS011;6062;47.294;12.182;2023-04-16T00:09:37;0.50;;;0.50;;
12005;SDS011;6062;47.294;12.182;2023-04-16T00:12:02;0.40;;;0.40;;
12005;SDS011;6062;47.294;12.182;2023-04-16T00:14:30;0.43;;;0.43;;
12005;SDS011;6062;47.294;12.182;2023-04-16T00:16:56;0.50;;;0.50;;
12005;SDS011;6062;47.294;12.182;2023-04-16T00:19:21;0.50;;;0.50;;
12005;SDS011;6062;47.294;12.182;2023-04-16T00:21:47;0.60;;;0.60;;
12005;SDS011;6062;47.294;12.182;2023-04-16T00:24:13;0.40;;;0.40;;
12005;SDS011;6062;47.294;12.182;2023-04-16T00:26:38;0.40;;;0.40;;
12005;SDS011;6062;47.294;12.182;2023-04-16T00:29:05;0.50;;;0.50;;
12005;SDS011;6062;47.294;12.182;2023-04-16T00:31:31;0.53;;;0.53;;
12005;SDS011;6062;47.294;12.182;2023-04-16T00:33:58;0.40;;;0.40;;
12005;SDS011;6062;47.294;12.182;2023-04-16T00:36:24;0.40;;;0.40;;
12005;SDS011;6062;47.294;12.182;2023-04-16T00:38:52;0.40;;;0.40;;
12005;SDS011;6062;47.294;12.182;2023-04-16T00:41:18;0.50;;;0.50;;
12005;SDS011;6062;47.294;12.182;2023-04-16T00:43:44;0.40;;;0.40;;
12005;SDS011;6062;47.294;12.182;2023-04-16T00:46:10;0.50;;;0.50;;
12005;SDS011;6062;47.294;12.182;2023-04-16T00:48:37;0.50;;;0.50;;
12005;SDS011;6062;47.294;12.182;2023-04-16T00:51:05;0.50;;;0.50;;
12005;SDS011;6062;47.294;12.182;2023-04-16T00:53:32;0.60;;;0.60;;
12005;SDS011;6062;47.294;12.182;2023-04-16T00:56:00;0.50;;;0.50;;
12005;SDS011;6062;47.294;12.182;2023-04-16T00:58:29;0.40;;;0.40;;
12005;SDS011;6062;47.294;12.182;2023-04-16T01:00:55;0.50;;;0.50;;
12005;SDS011;6062;47.294;12.182;2023-04-16T01:03:22;0.50;;;0.50;;
12005;SDS011;6062;47.294;12.182;2023-04-16T01:05:58;0.40;;;0.40;;
12005;SDS011;6062;47.294;12.182;2023-04-16T01:08:25;0.40;;;0.40;;
12005;SDS011;6062;47.294;12.182;2023-04-16T01:10:51;0.50;;;0.50;;
12005;SDS011;6062;47.294;12.182;2023-04-16T01:13:16;0.50;;;0.50;;
12005;SDS011;6062;47.294;12.182;2023-04-16T01:15:42;0.50;;;0.50;;
12005;SDS011;6062;47.294;12.182;2023-04-16T01:18:18;0.40;;;0.40;;
12005;SDS011;6062;47.294;12.182;2023-04-16T01:20:46;0.40;;;0.40;;
12005;SDS011;6062;47.294;12.182;2023-04-16T01:23:13;0.43;;;0.43;;
12005;SDS011;6062;47.294;12.182;2023-04-16T01:25:40;0.40;;;0.40;;
12005;SDS011;6062;47.294;12.182;2023-04-16T01:28:06;0.50;;;0.50;;
12005;SDS011;6062;47.294;12.182;2023-04-16T01:30:32;0.50;;;0.50;;
12005;SDS011;6062;47.294;12.182;2023-04-16T01:32:57;0.50;;;0.50;;
12005;SDS011;6062;47.294;12.182;2023-04-16T01:35:25;0.40;;;0.40;;
12005;SDS011;6062;47.294;12.182;2023-04-16T01:37:51;0.40;;;0.40;;
12005;SDS011;6062;47.294;12.182;2023-04-16T01:40:17;0.50;;;0.50;;
12005;SDS011;6062;47.294;12.182;2023-04-16T01:42:43;0.50;;;0.50;;
12005;SDS011;6062;47.294;12.182;2023-04-16T01:45:09;0.50;;;0.50;;
12005;SDS011;6062;47.294;12.182;2023-04-16T01:47:35;2.27;;;0.50;;
12005;SDS011;6062;47.294;12.182;2023-04-16T01:50:01;0.40;;;0.40;;
12005;SDS011;6062;47.294;12.182;2023-04-16T01:52:29;0.40;;;0.40;;
12005;SDS011;6062;47.294;12.182;2023-04-16T01:54:55;0.40;;;0.40;;
12005;SDS011;6062;47.294;12.182;2023-04-16T01:57:21;0.40;;;0.40;;
12005;SDS011;6062;47.294;12.182;2023-04-16T01:59:47;0.40;;;0.40;;
12005;SDS011;6062;47.294;12.182;2023-04-16T02:02:13;0.40;;;0.40;;
12005;SDS011;6062;47.294;12.182;2023-04-16T02:04:40;0.40;;;0.40;;
12005;SDS011;6062;47.294;12.182;2023-04-16T02:07:09;0.40;;;0.40;;
12005;SDS011;6062;47.294;12.182;2023-04-16T02:09:37;0.40;;;0.40;;
12005;SDS011;6062;47.294;12.182;2023-04-16T02:12:04;0.40;;;0.40;;
12005;SDS011;6062;47.294;12.182;2023-04-16T02:14:31;0.40;;;0.40;;
12005;SDS011;6062;47.294;12.182;2023-04-16T02:16:58;0.40;;;0.40;;
12005;SDS011;6062;47.294;12.182;2023-04-16T02:19:24;0.43;;;0.43;;
12005;SDS011;6062;47.294;12.182;2023-04-16T02:21:50;0.40;;;0.40;;
12005;SDS011;6062;47.294;12.182;2023-04-16T02:24:17;0.37;;;0.37;;
12005;SDS011;6062;47.294;12.182;2023-04-16T02:26:43;0.40;;;0.40;;
12005;SDS011;6062;47.294;12.182;2023-04-16T02:29:09;0.33;;;0.33;;
12005;SDS011;6062;47.294;12.182;2023-04-16T02:31:35;0.33;;;0.33;;
12005;SDS011;6062;47.294;12.182;2023-04-16T02:34:01;0.30;;;0.30;;
12005;SDS011;6062;47.294;12.182;2023-04-16T02:36:28;0.40;;;0.40;;
12005;SDS011;6062;47.294;12.182;2023-04-16T02:38:53;0.40;;;0.40;;
12005;SDS011;6062;47.294;12.182;2023-04-16T02:41:19;0.40;;;0.40;;
12005;SDS011;6062;47.294;12.182;2023-04-16T02:43:45;0.40;;;0.40;;
12005;SDS011;6062;47.294;12.182;2023-04-16T02:46:11;0.40;;;0.40;;
12005;SDS011;6062;47.294;12.182;2023-04-16T02:48:36;0.50;;;0.50;;
12005;SDS011;6062;47.294;12.182;2023-04-16T02:51:02;0.50;;;0.50;;
12005;SDS011;6062;47.294;12.182;2023-04-16T02:53:28;0.40;;;0.40;;
12005;SDS011;6062;47.294;12.182;2023-04-16T02:55:54;0.40;;;0.40;;
12005;SDS011;6062;47.294;12.182;2023-04-16T02:58:20;0.40;;;0.40;;
12005;SDS011;6062;47.294;12.182;2023-04-16T03:00:48;0.50;;;0.50;;
12005;SDS011;6062;47.294;12.182;2023-04-16T03:03:15;0.50;;;0.50;;
12005;SDS011;6062;47.294;12.182;2023-04-16T03:05:41;0.50;;;0.50;;
12005;SDS011;6062;47.294;12.182;2023-04-16T03:08:07;0.50;;;0.50;;
12005;SDS011;6062;47.294;12.182;2023-04-16T03:10:33;0.50;;;0.50;;
12005;SDS011;6062;47.294;12.182;2023-04-16T03:12:59;0.50;;;0.50;;
12005;SDS011;6062;47.294;12.182;2023-04-16T03:15:25;0.40;;;0.40;;
12005;SDS011;6062;47.294;12.182;2023-04-16T03:17:51;0.40;;;0.40;;
12005;SDS011;6062;47.294;12.182;2023-04-16T03:20:17;0.50;;;0.50;;
12005;SDS011;6062;47.294;12.182;2023-04-16T03:22:44;0.40;;;0.40;;
12005;SDS011;6062;47.294;12.182;2023-04-16T03:25:10;0.40;;;0.40;;
12005;SDS011;6062;47.294;12.182;2023-04-16T03:27:37;0.47;;;0.47;;
12005;SDS011;6062;47.294;12.182;2023-04-16T03:30:06;0.40;;;0.40;;
12005;SDS011;6062;47.294;12.182;2023-04-16T03:32:34;0.40;;;0.40;;
12005;SDS011;6062;47.294;12.182;2023-04-16T03:35:01;0.40;;;0.40;;
12005;SDS011;6062;47.294;12.182;2023-04-16T03:37:31;0.40;;;0.40;;
12005;SDS011;6062;47.294;12.182;2023-04-16T03:39:57;0.40;;;0.40;;
12005;SDS011;6062;47.294;12.182;2023-04-16T03:42:23;0.30;;;0.30;;
12005;SDS011;6062;47.294;12.182;2023-04-16T03:44:49;0.40;;;0.40;;
12005;SDS011;6062;47.294;12.182;2023-04-16T03:47:15;0.40;;;0.40;;
12005;SDS011;6062;47.294;12.182;2023-04-16T03:49:40;0.50;;;0.50;;
12005;SDS011;6062;47.294;12.182;2023-04-16T03:52:06;0.40;;;0.40;;
12005;SDS011;6062;47.294;12.182;2023-04-16T03:54:32;0.40;;;0.40;;
12005;SDS011;6062;47.294;12.182;2023-04-16T03:56:57;0.40;;;0.40;;
12005;SDS011;6062;47.294;12.182;2023-04-16T03:59:23;0.40;;;0.40;;
12005;SDS011;6062;47.294;12.182;2023-04-16T04:01:49;0.40;;;0.40;;
12005;SDS011;6062;47.294;12.182;2023-04-16T04:04:14;0.40;;;0.40;;
12005;SDS011;6062;47.294;12.182;2023-04-16T04:06:41;0.40;;;0.40;;
12005;SDS011;6062;47.294;12.182;2023-04-16T04:09:08;0.50;;;0.50;;
12005;SDS011;6062;47.294;12.182;2023-04-16T04:11:34;0.50;;;0.50;;
12005;SDS011;6062;47.294;12.182;2023-04-16T04:14:00;0.50;;;0.50;;
12005;SDS011;6062;47.294;12.182;2023-04-16T04:16:25;0.50;;;0.50;;
12005;SDS011;6062;47.294;12.182;2023-04-16T04:18:51;0.40;;;0.40;;
12005;SDS011;6062;47.294;12.182;2023-04-16T04:21:17;0.50;;;0.50;;
12005;SDS011;6062;47.294;12.182;2023-04-16T04:23:42;0.40;;;0.40;;
12005;SDS011;6062;47.294;12.182;2023-04-16T04:26:08;0.50;;;0.50;;
12005;SDS011;6062;47.294;12.182;2023-04-16T04:28:34;0.40;;;0.40;;
12005;SDS011;6062;47.294;12.182;2023-04-16T04:31:00;0.40;;;0.40;;
12005;SDS011;6062;47.294;12.182;2023-04-16T04:33:26;0.50;;;0.50;;
12005;SDS011;6062;47.294;12.182;2023-04-16T04:35:52;0.40;;;0.40;;
12005;SDS011;6062;47.294;12.182;2023-04-16T04:38:19;0.50;;;0.40;;
12005;SDS011;6062;47.294;12.182;2023-04-16T04:40:49;0.50;;;0.50;;
12005;SDS011;6062;47.294;12.182;2023-04-16T04:43:16;0.77;;;0.50;;
12005;SDS011;6062;47.294;12.182;2023-04-16T04:45:43;0.40;;;0.40;;
12005;SDS011;6062;47.294;12.182;2023-04-16T04:48:09;0.40;;;0.40;;
12005;SDS011;6062;47.294;12.182;2023-04-16T04:50:35;0.40;;;0.40;;
12005;SDS011;6062;47.294;12.182;2023-04-16T04:53:01;0.50;;;0.50;;
12005;SDS011;6062;47.294;12.182;2023-04-16T04:55:31;0.40;;;0.40;;
12005;SDS011;6062;47.294;12.182;2023-04-16T04:57:57;0.40;;;0.40;;
12005;SDS011;6062;47.294;12.182;2023-04-16T05:00:22;0.40;;;0.40;;
12005;SDS011;6062;47.294;12.182;2023-04-16T05:02:48;0.50;;;0.50;;
12005;SDS011;6062;47.294;12.182;2023-04-16T05:05:15;0.40;;;0.40;;
12005;SDS011;6062;47.294;12.182;2023-04-16T05:07:41;0.40;;;0.40;;
12005;SDS011;6062;47.294;12.182;2023-04-16T05:10:07;0.40;;;0.40;;
12005;SDS011;6062;47.294;12.182;2023-04-16T05:12:33;0.40;;;0.40;;
12005;SDS011;6062;47.294;12.182;2023-04-16T05:14:59;0.40;;;0.40;;
12005;SDS011;6062;47.294;12.182;2023-04-16T05:17:24;0.40;;;0.40;;
12005;SDS011;6062;47.294;12.182;2023-04-16T05:19:50;0.70;;;0.40;;
12005;SDS011;6062;47.294;12.182;2023-04-16T05:22:16;0.40;;;0.40;;
12005;SDS011;6062;47.294;12.182;2023-04-16T05:24:43;0.40;;;0.40;;
12005;SDS011;6062;47.294;12.182;2023-04-16T05:27:09;0.30;;;0.30;;
12005;SDS011;6062;47.294;12.182;2023-04-16T05:29:35;0.40;;;0.40;;
12005;SDS011;6062;47.294;12.182;2023-04-16T05:32:00;0.40;;;0.40;;
12005;SDS011;6062;47.294;12.182;2023-04-16T05:34:26;0.40;;;0.40;;
12005;SDS011;6062;47.294;12.182;2023-04-16T05:36:52;0.40;;;0.40;;
12005;SDS011;6062;47.294;12.182;2023-04-16T05:39:18;0.40;;;0.40;;
12005;SDS011;6062;47.294;12.182;2023-04-16T05:41:44;0.50;;;0.50;;
12005;SDS011;6062;47.294;12.182;2023-04-16T05:44:09;0.40;;;0.40;;
12005;SDS011;6062;47.294;12.182;2023-04-16T05:46:35;0.40;;;0.40;;
12005;SDS011;6062;47.294;12.182;2023-04-16T05:49:01;0.40;;;0.40;;
12005;SDS011;6062;47.294;12.182;2023-04-16T05:51:26;0.40;;;0.40;;
12005;SDS011;6062;47.294;12.182;2023-04-16T05:53:52;0.40;;;0.40;;
12005;SDS011;6062;47.294;12.182;2023-04-16T05:56:18;0.40;;;0.40;;
12005;SDS011;6062;47.294;12.182;2023-04-16T05:58:45;0.40;;;0.40;;
12005;SDS011;6062;47.294;12.182;2023-04-16T06:01:11;0.40;;;0.40;;
12005;SDS011;6062;47.294;12.182;2023-04-16T06:03:37;0.33;;;0.33;;
12005;SDS011;6062;47.294;12.182;2023-04-16T06:06:02;0.40;;;0.40;;
12005;SDS011;6062;47.294;12.182;2023-04-16T06:08:28;0.40;;;0.40;;
12005;SDS011;6062;47.294;12.182;2023-04-16T06:10:54;0.40;;;0.40;;
12005;SDS011;6062;47.294;12.182;2023-04-16T06:13:20;0.30;;;0.30;;
12005;SDS011;6062;47.294;12.182;2023-04-16T06:15:46;0.40;;;0.40;;
12005;SDS011;6062;47.294;12.182;2023-04-16T06:18:12;0.57;;;0.40;;
12005;SDS011;6062;47.294;12.182;2023-04-16T06:20:37;0.40;;;0.40;;
12005;SDS011;6062;47.294;12.182;2023-04-16T06:23:03;0.40;;;0.40;;
12005;SDS011;6062;47.294;12.182;2023-04-16T06:25:29;0.40;;;0.40;;
12005;SDS011;6062;47.294;12.182;2023-04-16T06:27:54;0.40;;;0.40;;
12005;SDS011;6062;47.294;12.182;2023-04-16T06:30:20;0.40;;;0.40;;
12005;SDS011;6062;47.294;12.182;2023-04-16T06:32:46;0.40;;;0.40;;
12005;SDS011;6062;47.294;12.182;2023-04-16T06:35:11;0.40;;;0.40;;
12005;SDS011;6062;47.294;12.182;2023-04-16T06:37:37;0.50;;;0.50;;
12005;SDS011;6062;47.294;12.182;2023-04-16T06:40:03;0.40;;;0.40;;
12005;SDS011;6062;47.294;12.182;2023-04-16T06:42:29;0.40;;;0.40;;
12005;SDS011;6062;47.294;12.182;2023-04-16T06:44:55;0.40;;;0.40;;
12005;SDS011;6062;47.294;12.182;2023-04-16T06:47:21;0.50;;;0.50;;
12005;SDS011;6062;47.294;12.182;2023-04-16T06:49:47;0.43;;;0.43;;
12005;SDS011;6062;47.294;12.182;2023-04-16T06:52:12;0.40;;;0.40;;
12005;SDS011;6062;47.294;12.182;2023-04-16T06:54:38;0.50;;;0.50;;
12005;SDS011;6062;47.294;12.182;2023-04-16T06:57:04;0.43;;;0.43;;
12005;SDS011;6062;47.294;12.182;2023-04-16T06:59:30;0.47;;;0.47;;
12005;SDS011;6062;47.294;12.182;2023-04-16T07:01:55;1.57;;;0.50;;
12005;SDS011;6062;47.294;12.182;2023-04-16T07:04:22;0.40;;;0.40;;
12005;SDS011;6062;47.294;12.182;2023-04-16T07:06:47;0.60;;;0.60;;
12005;SDS011;6062;47.294;12.182;2023-04-16T07:09:13;0.60;;;0.60;;
12005;SDS011;6062;47.294;12.182;2023-04-16T07:11:39;0.50;;;0.50;;
12005;SDS011;6062;47.294;12.182;2023-04-16T07:14:05;0.50;;;0.50;;
12005;SDS011;6062;47.294;12.182;2023-04-16T07:16:32;0.60;;;0.60;;
12005;SDS011;6062;47.294;12.182;2023-04-16T07:18:57;0.40;;;0.40;;
12005;SDS011;6062;47.294;12.182;2023-04-16T07:21:23;0.40;;;0.40;;
12005;SDS011;6062;47.294;12.182;2023-04-16T07:23:50;0.50;;;0.50;;
12005;SDS011;6062;47.294;12.182;2023-04-16T07:26:15;0.50;;;0.50;;
12005;SDS011;6062;47.294;12.182;2023-04-16T07:28:41;0.47;;;0.47;;
12005;SDS011;6062;47.294;12.182;2023-04-16T07:31:07;0.50;;;0.50;;
12005;SDS011;6062;47.294;12.182;2023-04-16T07:33:34;0.40;;;0.40;;
12005;SDS011;6062;47.294;12.182;2023-04-16T07:36:00;0.40;;;0.40;;
12005;SDS011;6062;47.294;12.182;2023-04-16T07:38:26;0.40;;;0.40;;
12005;SDS011;6062;47.294;12.182;2023-04-16T07:40:51;0.50;;;0.50;;
12005;SDS011;6062;47.294;12.182;2023-04-16T07:43:17;0.47;;;0.47;;
12005;SDS011;6062;47.294;12.182;2023-04-16T07:45:43;0.50;;;0.50;;
12005;SDS011;6062;47.294;12.182;2023-04-16T07:48:08;0.65;;;0.50;;
12005;SDS011;6062;47.294;12.182;2023-04-16T07:50:34;0.50;;;0.50;;
12005;SDS011;6062;47.294;12.182;2023-04-16T07:53:00;0.47;;;0.47;;
12005;SDS011;6062;47.294;12.182;2023-04-16T07:55:26;0.50;;;0.50;;
12005;SDS011;6062;47.294;12.182;2023-04-16T07:57:51;0.60;;;0.60;;
12005;SDS011;6062;47.294;12.182;2023-04-16T08:00:17;0.50;;;0.50;;
12005;SDS011;6062;47.294;12.182;2023-04-16T08:02:43;0.50;;;0.50;;
12005;SDS011;6062;47.294;12.182;2023-04-16T08:05:09;0.50;;;0.50;;
12005;SDS011;6062;47.294;12.182;2023-04-16T08:07:36;0.60;;;0.50;;
12005;SDS011;6062;47.294;12.182;2023-04-16T08:10:02;0.50;;;0.50;;
12005;SDS011;6062;47.294;12.182;2023-04-16T08:12:28;0.53;;;0.53;;
12005;SDS011;6062;47.294;12.182;2023-04-16T08:14:53;0.50;;;0.50;;
12005;SDS011;6062;47.294;12.182;2023-04-16T08:17:19;0.50;;;0.50;;
12005;SDS011;6062;47.294;12.182;2023-04-16T08:19:45;0.40;;;0.40;;
12005;SDS011;6062;47.294;12.182;2023-04-16T08:22:11;0.50;;;0.50;;
12005;SDS011;6062;47.294;12.182;2023-04-16T08:24:37;0.40;;;0.40;;
12005;SDS011;6062;47.294;12.182;2023-04-16T08:27:03;0.60;;;0.60;;
12005;SDS011;6062;47.294;12.182;2023-04-16T08:29:30;0.40;;;0.40;;
12005;SDS011;6062;47.294;12.182;2023-04-16T08:31:56;0.50;;;0.50;;
12005;SDS011;6062;47.294;12.182;2023-04-16T08:34:22;0.52;;;0.52;;
12005;SDS011;6062;47.294;12.182;2023-04-16T08:36:48;0.55;;;0.50;;
12005;SDS011;6062;47.294;12.182;2023-04-16T08:39:14;0.60;;;0.60;;
12005;SDS011;6062;47.294;12.182;2023-04-16T08:41:40;0.60;;;0.60;;
12005;SDS011;6062;47.294;12.182;2023-04-16T08:44:19;0.43;;;0.43;;
12005;SDS011;6062;47.294;12.182;2023-04-16T08:46:52;0.47;;;0.47;;
12005;SDS011;6062;47.294;12.182;2023-04-16T08:49:25;0.40;;;0.40;;
12005;SDS011;6062;47.294;12.182;2023-04-16T08:51:52;0.40;;;0.40;;
12005;SDS011;6062;47.294;12.182;2023-04-16T08:54:24;0.40;;;0.40;;
12005;SDS011;6062;47.294;12.182;2023-04-16T08:57:11;0.40;;;0.40;;
12005;SDS011;6062;47.294;12.182;2023-04-16T08:59:45;0.40;;;0.40;;
12005;SDS011;6062;47.294;12.182;2023-04-16T09:02:12;0.45;;;0.45;;
12005;SDS011;6062;47.294;12.182;2023-04-16T09:04:39;0.40;;;0.40;;
12005;SDS011;6062;47.294;12.182;2023-04-16T09:07:07;0.40;;;0.40;;
12005;SDS011;6062;47.294;12.182;2023-04-16T09:09:33;0.50;;;0.50;;
12005;SDS011;6062;47.294;12.182;2023-04-16T09:12:01;0.40;;;0.40;;
12005;SDS011;6062;47.294;12.182;2023-04-16T09:14:28;0.40;;;0.40;;
12005;SDS011;6062;47.294;12.182;2023-04-16T09:16:55;0.50;;;0.50;;
12005;SDS011;6062;47.294;12.182;2023-04-16T09:19:25;0.40;;;0.40;;
12005;SDS011;6062;47.294;12.182;2023-04-16T09:21:51;0.22;;;0.22;;
12005;SDS011;6062;47.294;12.182;2023-04-16T09:24:17;0.40;;;0.40;;
12005;SDS011;6062;47.294;12.182;2023-04-16T09:26:43;0.30;;;0.30;;
12005;SDS011;6062;47.294;12.182;2023-04-16T09:29:10;0.47;;;0.47;;
12005;SDS011;6062;47.294;12.182;2023-04-16T09:31:36;0.47;;;0.47;;
12005;SDS011;6062;47.294;12.182;2023-04-16T09:36:30;0.40;;;0.40;;
12005;SDS011;6062;47.294;12.182;2023-04-16T09:38:57;0.35;;;0.35;;
12005;SDS011;6062;47.294;12.182;2023-04-16T09:41:24;0.30;;;0.30;;
12005;SDS011;6062;47.294;12.182;2023-04-16T09:43:57;0.40;;;0.40;;
12005;SDS011;6062;47.294;12.182;2023-04-16T09:46:36;0.50;;;0.50;;
12005;SDS011;6062;47.294;12.182;2023-04-16T09:49:08;0.40;;;0.40;;
12005;SDS011;6062;47.294;12.182;2023-04-16T09:51:44;0.40;;;0.40;;
12005;SDS011;6062;47.294;12.182;2023-04-16T09:54:17;0.50;;;0.50;;
12005;SDS011;6062;47.294;12.182;2023-04-16T09:56:44;0.25;;;0.25;;
12005;SDS011;6062;47.294;12.182;2023-04-16T09:59:17;0.50;;;0.50;;
12005;SDS011;6062;47.294;12.182;2023-04-16T10:01:48;0.50;;;0.50;;
12005;SDS011;6062;47.294;12.182;2023-04-16T10:04:16;0.30;;;0.30;;
12005;SDS011;6062;47.294;12.182;2023-04-16T10:06:43;0.40;;;0.40;;
12005;SDS011;6062;47.294;12.182;2023-04-16T10:09:30;0.40;;;0.40;;
12005;SDS011;6062;47.294;12.182;2023-04-16T10:12:00;0.40;;;0.40;;
12005;SDS011;6062;47.294;12.182;2023-04-16T10:14:26;0.60;;;0.60;;
12005;SDS011;6062;47.294;12.182;2023-04-16T10:16:53;0.22;;;0.22;;
12005;SDS011;6062;47.294;12.182;2023-04-16T10:19:23;0.43;;;0.43;;
12005;SDS011;6062;47.294;12.182;2023-04-16T10:21:50;0.50;;;0.50;;
12005;SDS011;6062;47.294;12.182;2023-04-16T10:24:17;0.50;;;0.50;;
12005;SDS011;6062;47.294;12.182;2023-04-16T10:26:43;0.68;;;0.40;;
12005;SDS011;6062;47.294;12.182;2023-04-16T10:29:13;0.40;;;0.40;;
12005;SDS011;6062;47.294;12.182;2023-04-16T10:31:39;0.50;;;0.50;;
12005;SDS011;6062;47.294;12.182;2023-04-16T10:34:06;0.40;;;0.40;;
12005;SDS011;6062;47.294;12.182;2023-04-16T10:36:37;0.40;;;0.40;;
12005;SDS011;6062;47.294;12.182;2023-04-16T10:39:05;0.38;;;0.38;;
12005;SDS011;6062;47.294;12.182;2023-04-16T10:41:37;0.60;;;0.60;;
12005;SDS011;6062;47.294;12.182;2023-04-16T10:44:04;0.40;;;0.40;;
12005;SDS011;6062;47.294;12.182;2023-04-16T10:49:13;0.50;;;0.50;;
12005;SDS011;6062;47.294;12.182;2023-04-16T10:51:51;0.40;;;0.40;;
12005;SDS011;6062;47.294;12.182;2023-04-16T10:56:43;0.63;;;0.40;;
12005;SDS011;6062;47.294;12.182;2023-04-16T10:59:10;0.63;;;0.30;;
12005;SDS011;6062;47.294;12.182;2023-04-16T11:01:41;0.40;;;0.40;;
12005;SDS011;6062;47.294;12.182;2023-04-16T11:12:17;0.30;;;0.30;;
12005;SDS011;6062;47.294;12.182;2023-04-16T11:14:52;0.30;;;0.30;;
12005;SDS011;6062;47.294;12.182;2023-04-16T11:17:26;0.40;;;0.40;;
12005;SDS011;6062;47.294;12.182;2023-04-16T11:20:04;0.40;;;0.40;;
12005;SDS011;6062;47.294;12.182;2023-04-16T11:22:39;0.57;;;0.40;;
12005;SDS011;6062;47.294;12.182;2023-04-16T11:25:07;1.08;;;0.60;;
12005;SDS011;6062;47.294;12.182;2023-04-16T11:27:33;0.47;;;0.47;;
12005;SDS011;6062;47.294;12.182;2023-04-16T11:29:59;0.32;;;0.32;;
12005;SDS011;6062;47.294;12.182;2023-04-16T11:32:31;1.00;;;0.43;;
12005;SDS011;6062;47.294;12.182;2023-04-16T11:34:59;0.40;;;0.40;;
12005;SDS011;6062;47.294;12.182;2023-04-16T11:37:32;0.50;;;0.50;;
12005;SDS011;6062;47.294;12.182;2023-04-16T11:40:03;0.20;;;0.20;;
12005;SDS011;6062;47.294;12.182;2023-04-16T11:42:31;0.40;;;0.40;;
12005;SDS011;6062;47.294;12.182;2023-04-16T11:45:01;0.32;;;0.32;;
12005;SDS011;6062;47.294;12.182;2023-04-16T11:47:28;0.40;;;0.40;;
12005;SDS011;6062;47.294;12.182;2023-04-16T11:49:55;0.40;;;0.40;;
12005;SDS011;6062;47.294;12.182;2023-04-16T11:53:03;0.75;;;0.57;;
12005;SDS011;6062;47.294;12.182;2023-04-16T11:55:30;0.50;;;0.50;;
12005;SDS011;6062;47.294;12.182;2023-04-16T11:57:55;0.40;;;0.40;;
12005;SDS011;6062;47.294;12.182;2023-04-16T12:00:21;0.40;;;0.40;;
12005;SDS011;6062;47.294;12.182;2023-04-16T12:02:51;0.40;;;0.40;;
12005;SDS011;6062;47.294;12.182;2023-04-16T12:05:31;0.40;;;0.40;;
12005;SDS011;6062;47.294;12.182;2023-04-16T12:08:01;0.40;;;0.40;;
12005;SDS011;6062;47.294;12.182;2023-04-16T12:10:30;0.50;;;0.43;;
12005;SDS011;6062;47.294;12.182;2023-04-16T12:13:15;0.30;;;0.30;;
12005;SDS011;6062;47.294;12.182;2023-04-16T12:15:45;1.40;;;0.40;;
12005;SDS011;6062;47.294;12.182;2023-04-16T12:18:17;0.55;;;0.55;;
12005;SDS011;6062;47.294;12.182;2023-04-16T12:20:46;0.40;;;0.40;;
12005;SDS011;6062;47.294;12.182;2023-04-16T12:23:29;0.40;;;0.40;;
12005;SDS011;6062;47.294;12.182;2023-04-16T12:25:58;0.85;;;0.60;;
12005;SDS011;6062;47.294;12.182;2023-04-16T12:28:35;0.47;;;0.47;;
12005;SDS011;6062;47.294;12.182;2023-04-16T12:31:04;0.50;;;0.50;;
12005;SDS011;6062;47.294;12.182;2023-04-16T12:33:31;0.60;;;0.60;;
12005;SDS011;6062;47.294;12.182;2023-04-16T12:35:56;0.63;;;0.50;;
12005;SDS011;6062;47.294;12.182;2023-04-16T12:38:22;0.50;;;0.50;;
12005;SDS011;6062;47.294;12.182;2023-04-16T12:40:49;0.55;;;0.50;;
12005;SDS011;6062;47.294;12.182;2023-04-16T12:43:15;0.50;;;0.50;;
12005;SDS011;6062;47.294;12.182;2023-04-16T12:45:41;0.50;;;0.45;;
12005;SDS011;6062;47.294;12.182;2023-04-16T12:48:07;0.52;;;0.52;;
12005;SDS011;6062;47.294;12.182;2023-04-16T12:50:33;0.40;;;0.40;;
12005;SDS011;6062;47.294;12.182;2023-04-16T12:52:59;0.32;;;0.32;;
12005;SDS011;6062;47.294;12.182;2023-04-16T12:55:24;0.40;;;0.40;;
12005;SDS011;6062;47.294;12.182;2023-04-16T12:57:50;0.40;;;0.40;;
12005;SDS011;6062;47.294;12.182;2023-04-16T13:00:19;0.40;;;0.40;;
12005;SDS011;6062;47.294;12.182;2023-04-16T13:02:45;0.40;;;0.40;;
12005;SDS011;6062;47.294;12.182;2023-04-16T13:05:11;0.40;;;0.40;;
12005;SDS011;6062;47.294;12.182;2023-04-16T13:07:40;0.30;;;0.30;;
12005;SDS011;6062;47.294;12.182;2023-04-16T13:10:06;0.30;;;0.30;;
12005;SDS011;6062;47.294;12.182;2023-04-16T13:12:33;0.30;;;0.30;;
12005;SDS011;6062;47.294;12.182;2023-04-16T13:14:59;0.30;;;0.30;;
12005;SDS011;6062;47.294;12.182;2023-04-16T13:17:24;0.40;;;0.40;;
12005;SDS011;6062;47.294;12.182;2023-04-16T13:19:50;0.98;;;0.50;;
12005;SDS011;6062;47.294;12.182;2023-04-16T13:22:16;12.55;;;1.10;;
12005;SDS011;6062;47.294;12.182;2023-04-16T13:24:41;2.63;;;0.80;;
12005;SDS011;6062;47.294;12.182;2023-04-16T13:27:07;11.25;;;1.30;;
12005;SDS011;6062;47.294;12.182;2023-04-16T13:29:33;9.68;;;1.20;;
12005;SDS011;6062;47.294;12.182;2023-04-16T13:32:02;7.93;;;1.10;;
12005;SDS011;6062;47.294;12.182;2023-04-16T13:34:28;1.02;;;0.93;;
12005;SDS011;6062;47.294;12.182;2023-04-16T13:36:54;0.80;;;0.80;;
12005;SDS011;6062;47.294;12.182;2023-04-16T13:39:20;11.00;;;1.35;;
12005;SDS011;6062;47.294;12.182;2023-04-16T13:41:46;3.03;;;0.80;;
12005;SDS011;6062;47.294;12.182;2023-04-16T13:44:13;0.80;;;0.80;;
12005;SDS011;6062;47.294;12.182;2023-04-16T13:46:38;0.68;;;0.68;;
12005;SDS011;6062;47.294;12.182;2023-04-16T13:49:04;1.35;;;0.80;;
12005;SDS011;6062;47.294;12.182;2023-04-16T13:51:30;0.68;;;0.68;;
12005;SDS011;6062;47.294;12.182;2023-04-16T13:53:56;0.80;;;0.80;;
12005;SDS011;6062;47.294;12.182;2023-04-16T13:56:22;0.90;;;0.90;;
12005;SDS011;6062;47.294;12.182;2023-04-16T13:58:49;0.70;;;0.70;;
12005;SDS011;6062;47.294;12.182;2023-04-16T14:01:14;0.80;;;0.80;;
12005;SDS011;6062;47.294;12.182;2023-04-16T14:03:41;2.50;;;1.10;;
12005;SDS011;6062;47.294;12.182;2023-04-16T14:06:07;1.10;;;1.00;;
12005;SDS011;6062;47.294;12.182;2023-04-16T14:08:32;0.90;;;0.90;;
12005;SDS011;6062;47.294;12.182;2023-04-16T14:10:58;0.80;;;0.80;;
12005;SDS011;6062;47.294;12.182;2023-04-16T14:13:25;1.77;;;1.08;;
12005;SDS011;6062;47.294;12.182;2023-04-16T14:15:54;0.90;;;0.90;;
12005;SDS011;6062;47.294;12.182;2023-04-16T14:18:19;0.80;;;0.80;;
12005;SDS011;6062;47.294;12.182;2023-04-16T14:20:46;0.88;;;0.88;;
12005;SDS011;6062;47.294;12.182;2023-04-16T14:23:12;0.77;;;0.77;;
12005;SDS011;6062;47.294;12.182;2023-04-16T14:25:38;0.70;;;0.70;;
12005;SDS011;6062;47.294;12.182;2023-04-16T14:28:03;0.70;;;0.70;;
12005;SDS011;6062;47.294;12.182;2023-04-16T14:30:29;0.73;;;0.73;;
12005;SDS011;6062;47.294;12.182;2023-04-16T14:32:55;0.60;;;0.60;;
12005;SDS011;6062;47.294;12.182;2023-04-16T14:35:21;0.68;;;0.68;;
12005;SDS011;6062;47.294;12.182;2023-04-16T14:37:48;0.77;;;0.77;;
12005;SDS011;6062;47.294;12.182;2023-04-16T14:40:13;0.70;;;0.70;;
12005;SDS011;6062;47.294;12.182;2023-04-16T14:42:39;0.60;;;0.60;;
12005;SDS011;6062;47.294;12.182;2023-04-16T14:45:05;0.70;;;0.70;;
12005;SDS011;6062;47.294;12.182;2023-04-16T14:47:32;0.60;;;0.60;;
12005;SDS011;6062;47.294;12.182;2023-04-16T14:49:59;0.40;;;0.40;;
12005;SDS011;6062;47.294;12.182;2023-04-16T14:52:25;0.40;;;0.40;;
12005;SDS011;6062;47.294;12.182;2023-04-16T14:54:52;0.47;;;0.47;;
12005;SDS011;6062;47.294;12.182;2023-04-16T14:57:21;0.50;;;0.50;;
12005;SDS011;6062;47.294;12.182;2023-04-16T14:59:47;1.03;;;0.57;;
12005;SDS011;6062;47.294;12.182;2023-04-16T15:02:14;8.90;;;0.83;;
12005;SDS011;6062;47.294;12.182;2023-04-16T15:04:40;48.40;;;2.23;;